sensor_id;sensor_type;location;lat;lon;timestamp;P1;durP1;ratioP1;P2;durP2;ratioP2
59474;SDS011;45288;51.136;16.928;2023-03-08T00:01:23;26.58;;;14.65;;
59474;SDS011;45288;51.136;16.928;2023-03-08T00:03:52;23.60;;;13.65;;
59474;SDS011;45288;51.136;16.928;2023-03-08T00:06:18;21.40;;;13.27;;
59474;SDS011;45288;51.136;16.928;2023-03-08T00:08:43;23.65;;;12.93;;
59474;SDS011;45288;51.136;16.928;2023-03-08T00:11:10;19.13;;;11.27;;
59474;SDS011;45288;51.136;16.928;2023-03-08T00:13:36;22.80;;;11.65;;
59474;SDS011;45288;51.136;16.928;2023-03-08T00:16:03;20.92;;;11.07;;
59474;SDS011;45288;51.136;16.928;2023-03-08T00:18:29;20.48;;;10.68;;
59474;SDS011;45288;51.136;16.928;2023-03-08T00:20:59;18.63;;;9.55;;
59474;SDS011;45288;51.136;16.928;2023-03-08T00:23:24;19.73;;;10.35;;
59474;SDS011;45288;51.136;16.928;2023-03-08T00:25:51;20.30;;;10.55;;
59474;SDS011;45288;51.136;16.928;2023-03-08T00:28:17;18.55;;;9.70;;
59474;SDS011;45288;51.136;16.928;2023-03-08T00:30:42;20.63;;;10.70;;
59474;SDS011;45288;51.136;16.928;2023-03-08T00:33:08;19.33;;;10.40;;
59474;SDS011;45288;51.136;16.928;2023-03-08T00:35:35;22.33;;;10.95;;
59474;SDS011;45288;51.136;16.928;2023-03-08T00:38:01;17.33;;;9.63;;
59474;SDS011;45288;51.136;16.928;2023-03-08T00:40:27;20.98;;;10.50;;
59474;SDS011;45288;51.136;16.928;2023-03-08T00:42:52;19.20;;;10.13;;
59474;SDS011;45288;51.136;16.928;2023-03-08T00:45:18;22.30;;;10.82;;
59474;SDS011;45288;51.136;16.928;2023-03-08T00:47:43;20.70;;;10.70;;
59474;SDS011;45288;51.136;16.928;2023-03-08T00:50:09;19.35;;;11.00;;
59474;SDS011;45288;51.136;16.928;2023-03-08T00:52:35;21.65;;;11.93;;
59474;SDS011;45288;51.136;16.928;2023-03-08T00:55:00;21.37;;;11.30;;
59474;SDS011;45288;51.136;16.928;2023-03-08T00:57:26;21.88;;;11.27;;
59474;SDS011;45288;51.136;16.928;2023-03-08T00:59:51;22.10;;;10.47;;
59474;SDS011;45288;51.136;16.928;2023-03-08T01:02:17;19.02;;;10.05;;
59474;SDS011;45288;51.136;16.928;2023-03-08T01:04:43;23.70;;;10.52;;
59474;SDS011;45288;51.136;16.928;2023-03-08T01:07:08;19.67;;;9.20;;
59474;SDS011;45288;51.136;16.928;2023-03-08T01:09:36;19.50;;;9.10;;
59474;SDS011;45288;51.136;16.928;2023-03-08T01:12:02;16.10;;;7.35;;
59474;SDS011;45288;51.136;16.928;2023-03-08T01:14:28;18.83;;;7.82;;
59474;SDS011;45288;51.136;16.928;2023-03-08T01:16:54;17.27;;;7.47;;
59474;SDS011;45288;51.136;16.928;2023-03-08T01:19:20;17.73;;;8.03;;
59474;SDS011;45288;51.136;16.928;2023-03-08T01:21:45;18.73;;;8.10;;
59474;SDS011;45288;51.136;16.928;2023-03-08T01:24:11;18.07;;;8.30;;
59474;SDS011;45288;51.136;16.928;2023-03-08T01:26:37;20.70;;;8.47;;
59474;SDS011;45288;51.136;16.928;2023-03-08T01:29:02;18.97;;;8.50;;
59474;SDS011;45288;51.136;16.928;2023-03-08T01:31:28;19.47;;;8.63;;
59474;SDS011;45288;51.136;16.928;2023-03-08T01:33:55;17.95;;;8.55;;
59474;SDS011;45288;51.136;16.928;2023-03-08T01:36:22;17.57;;;8.57;;
59474;SDS011;45288;51.136;16.928;2023-03-08T01:38:48;19.08;;;8.65;;
59474;SDS011;45288;51.136;16.928;2023-03-08T01:41:15;16.90;;;7.95;;
59474;SDS011;45288;51.136;16.928;2023-03-08T01:43:41;20.23;;;8.82;;
59474;SDS011;45288;51.136;16.928;2023-03-08T01:46:24;18.08;;;8.70;;
59474;SDS011;45288;51.136;16.928;2023-03-08T01:51:25;17.05;;;7.82;;
59474;SDS011;45288;51.136;16.928;2023-03-08T01:53:53;21.02;;;7.93;;
59474;SDS011;45288;51.136;16.928;2023-03-08T01:56:18;18.58;;;7.53;;
59474;SDS011;45288;51.136;16.928;2023-03-08T01:58:44;18.23;;;7.38;;
59474;SDS011;45288;51.136;16.928;2023-03-08T02:01:11;16.77;;;6.63;;
59474;SDS011;45288;51.136;16.928;2023-03-08T02:03:37;17.63;;;6.90;;
59474;SDS011;45288;51.136;16.928;2023-03-08T02:06:03;15.63;;;6.23;;
59474;SDS011;45288;51.136;16.928;2023-03-08T02:08:30;16.85;;;6.60;;
59474;SDS011;45288;51.136;16.928;2023-03-08T02:10:56;15.67;;;6.10;;
59474;SDS011;45288;51.136;16.928;2023-03-08T02:13:22;12.70;;;5.20;;
59474;SDS011;45288;51.136;16.928;2023-03-08T02:15:48;15.40;;;5.77;;
59474;SDS011;45288;51.136;16.928;2023-03-08T02:18:17;13.45;;;5.53;;
59474;SDS011;45288;51.136;16.928;2023-03-08T02:20:43;17.83;;;5.53;;
59474;SDS011;45288;51.136;16.928;2023-03-08T02:25:39;16.77;;;5.60;;
59474;SDS011;45288;51.136;16.928;2023-03-08T02:28:06;16.00;;;5.57;;
59474;SDS011;45288;51.136;16.928;2023-03-08T02:30:34;13.68;;;5.70;;
59474;SDS011;45288;51.136;16.928;2023-03-08T02:33:01;12.70;;;5.57;;
59474;SDS011;45288;51.136;16.928;2023-03-08T02:35:27;13.68;;;5.88;;
59474;SDS011;45288;51.136;16.928;2023-03-08T02:37:53;13.83;;;5.67;;
59474;SDS011;45288;51.136;16.928;2023-03-08T02:40:19;10.77;;;4.57;;
59474;SDS011;45288;51.136;16.928;2023-03-08T02:42:45;14.98;;;5.35;;
59474;SDS011;45288;51.136;16.928;2023-03-08T02:45:10;13.13;;;5.23;;
59474;SDS011;45288;51.136;16.928;2023-03-08T02:47:36;11.83;;;4.80;;
59474;SDS011;45288;51.136;16.928;2023-03-08T02:50:03;11.90;;;5.10;;
59474;SDS011;45288;51.136;16.928;2023-03-08T02:52:29;13.32;;;5.25;;
59474;SDS011;45288;51.136;16.928;2023-03-08T02:54:54;13.80;;;5.33;;
59474;SDS011;45288;51.136;16.928;2023-03-08T02:57:21;10.75;;;4.50;;
59474;SDS011;45288;51.136;16.928;2023-03-08T02:59:48;14.57;;;5.47;;
59474;SDS011;45288;51.136;16.928;2023-03-08T03:02:14;10.57;;;4.82;;
59474;SDS011;45288;51.136;16.928;2023-03-08T03:04:40;15.25;;;5.00;;
59474;SDS011;45288;51.136;16.928;2023-03-08T03:07:06;11.00;;;4.88;;
59474;SDS011;45288;51.136;16.928;2023-03-08T03:09:33;13.82;;;5.15;;
59474;SDS011;45288;51.136;16.928;2023-03-08T03:11:59;12.33;;;4.87;;
59474;SDS011;45288;51.136;16.928;2023-03-08T03:14:28;11.93;;;5.00;;
59474;SDS011;45288;51.136;16.928;2023-03-08T03:16:54;12.32;;;5.07;;
59474;SDS011;45288;51.136;16.928;2023-03-08T03:19:20;11.38;;;4.88;;
59474;SDS011;45288;51.136;16.928;2023-03-08T03:21:47;12.80;;;5.37;;
59474;SDS011;45288;51.136;16.928;2023-03-08T03:24:13;10.88;;;4.85;;
59474;SDS011;45288;51.136;16.928;2023-03-08T03:26:44;10.65;;;4.72;;
59474;SDS011;45288;51.136;16.928;2023-03-08T03:29:11;13.88;;;5.15;;
59474;SDS011;45288;51.136;16.928;2023-03-08T03:31:39;13.98;;;5.40;;
59474;SDS011;45288;51.136;16.928;2023-03-08T03:34:05;13.40;;;4.93;;
59474;SDS011;45288;51.136;16.928;2023-03-08T03:36:31;13.80;;;5.07;;
59474;SDS011;45288;51.136;16.928;2023-03-08T03:38:59;12.68;;;4.78;;
59474;SDS011;45288;51.136;16.928;2023-03-08T03:41:25;12.95;;;5.00;;
59474;SDS011;45288;51.136;16.928;2023-03-08T03:43:59;12.93;;;5.22;;
59474;SDS011;45288;51.136;16.928;2023-03-08T03:46:25;12.50;;;5.20;;
59474;SDS011;45288;51.136;16.928;2023-03-08T03:48:53;14.65;;;4.93;;
59474;SDS011;45288;51.136;16.928;2023-03-08T03:51:21;13.10;;;5.40;;
59474;SDS011;45288;51.136;16.928;2023-03-08T03:53:52;15.02;;;6.15;;
59474;SDS011;45288;51.136;16.928;2023-03-08T03:56:23;12.75;;;5.18;;
59474;SDS011;45288;51.136;16.928;2023-03-08T03:58:51;13.45;;;5.57;;
59474;SDS011;45288;51.136;16.928;2023-03-08T04:01:20;13.52;;;5.28;;
59474;SDS011;45288;51.136;16.928;2023-03-08T04:03:47;12.02;;;5.38;;
59474;SDS011;45288;51.136;16.928;2023-03-08T04:06:17;10.27;;;4.22;;
59474;SDS011;45288;51.136;16.928;2023-03-08T04:08:43;12.45;;;5.05;;
59474;SDS011;45288;51.136;16.928;2023-03-08T04:11:15;10.27;;;4.53;;
59474;SDS011;45288;51.136;16.928;2023-03-08T04:13:41;10.88;;;4.30;;
59474;SDS011;45288;51.136;16.928;2023-03-08T04:16:07;10.32;;;4.55;;
59474;SDS011;45288;51.136;16.928;2023-03-08T04:18:33;11.48;;;4.80;;
59474;SDS011;45288;51.136;16.928;2023-03-08T04:20:59;13.67;;;5.40;;
59474;SDS011;45288;51.136;16.928;2023-03-08T04:23:24;14.60;;;5.60;;
59474;SDS011;45288;51.136;16.928;2023-03-08T04:25:50;15.70;;;6.33;;
59474;SDS011;45288;51.136;16.928;2023-03-08T04:28:16;12.90;;;5.63;;
59474;SDS011;45288;51.136;16.928;2023-03-08T04:30:42;13.73;;;5.78;;
59474;SDS011;45288;51.136;16.928;2023-03-08T04:33:08;12.07;;;5.28;;
59474;SDS011;45288;51.136;16.928;2023-03-08T04:35:42;14.85;;;6.13;;
59474;SDS011;45288;51.136;16.928;2023-03-08T04:38:08;15.27;;;6.20;;
59474;SDS011;45288;51.136;16.928;2023-03-08T04:40:34;15.32;;;6.43;;
59474;SDS011;45288;51.136;16.928;2023-03-08T04:43:20;13.60;;;6.07;;
59474;SDS011;45288;51.136;16.928;2023-03-08T04:45:46;14.98;;;6.72;;
59474;SDS011;45288;51.136;16.928;2023-03-08T04:48:13;12.85;;;5.88;;
59474;SDS011;45288;51.136;16.928;2023-03-08T04:50:39;16.88;;;7.20;;
59474;SDS011;45288;51.136;16.928;2023-03-08T04:53:05;13.20;;;6.03;;
59474;SDS011;45288;51.136;16.928;2023-03-08T04:55:31;15.23;;;6.77;;
59474;SDS011;45288;51.136;16.928;2023-03-08T04:57:57;12.85;;;6.57;;
59474;SDS011;45288;51.136;16.928;2023-03-08T05:00:26;15.02;;;7.00;;
59474;SDS011;45288;51.136;16.928;2023-03-08T05:02:52;13.98;;;6.55;;
59474;SDS011;45288;51.136;16.928;2023-03-08T05:05:18;13.47;;;6.87;;
59474;SDS011;45288;51.136;16.928;2023-03-08T05:07:44;13.70;;;6.83;;
59474;SDS011;45288;51.136;16.928;2023-03-08T05:10:10;14.35;;;6.90;;
59474;SDS011;45288;51.136;16.928;2023-03-08T05:12:36;18.07;;;9.07;;
59474;SDS011;45288;51.136;16.928;2023-03-08T05:15:02;15.55;;;8.38;;
59474;SDS011;45288;51.136;16.928;2023-03-08T05:17:28;18.75;;;9.18;;
59474;SDS011;45288;51.136;16.928;2023-03-08T05:19:54;21.08;;;10.30;;
59474;SDS011;45288;51.136;16.928;2023-03-08T05:22:27;23.02;;;10.98;;
59474;SDS011;45288;51.136;16.928;2023-03-08T05:24:55;22.55;;;10.55;;
59474;SDS011;45288;51.136;16.928;2023-03-08T05:27:21;19.37;;;9.50;;
59474;SDS011;45288;51.136;16.928;2023-03-08T05:29:49;19.57;;;9.40;;
59474;SDS011;45288;51.136;16.928;2023-03-08T05:32:15;20.90;;;9.23;;
59474;SDS011;45288;51.136;16.928;2023-03-08T05:34:41;17.77;;;8.50;;
59474;SDS011;45288;51.136;16.928;2023-03-08T05:37:12;17.13;;;8.05;;
59474;SDS011;45288;51.136;16.928;2023-03-08T05:39:39;17.80;;;9.05;;
59474;SDS011;45288;51.136;16.928;2023-03-08T05:42:16;16.73;;;8.20;;
59474;SDS011;45288;51.136;16.928;2023-03-08T05:44:44;17.38;;;8.77;;
59474;SDS011;45288;51.136;16.928;2023-03-08T05:47:11;16.40;;;8.15;;
59474;SDS011;45288;51.136;16.928;2023-03-08T05:49:37;15.53;;;8.30;;
59474;SDS011;45288;51.136;16.928;2023-03-08T05:52:03;17.85;;;8.52;;
59474;SDS011;45288;51.136;16.928;2023-03-08T05:54:29;18.70;;;8.82;;
59474;SDS011;45288;51.136;16.928;2023-03-08T05:57:00;18.05;;;8.48;;
59474;SDS011;45288;51.136;16.928;2023-03-08T05:59:27;18.38;;;8.70;;
59474;SDS011;45288;51.136;16.928;2023-03-08T06:01:57;18.50;;;8.25;;
59474;SDS011;45288;51.136;16.928;2023-03-08T06:04:38;19.45;;;8.30;;
59474;SDS011;45288;51.136;16.928;2023-03-08T06:07:04;16.47;;;8.00;;
59474;SDS011;45288;51.136;16.928;2023-03-08T06:09:40;18.20;;;7.68;;
59474;SDS011;45288;51.136;16.928;2023-03-08T06:12:10;16.98;;;7.68;;
59474;SDS011;45288;51.136;16.928;2023-03-08T06:14:36;15.63;;;7.38;;
59474;SDS011;45288;51.136;16.928;2023-03-08T06:17:01;15.47;;;7.13;;
59474;SDS011;45288;51.136;16.928;2023-03-08T06:19:30;15.52;;;7.22;;
59474;SDS011;45288;51.136;16.928;2023-03-08T06:21:56;18.65;;;7.43;;
59474;SDS011;45288;51.136;16.928;2023-03-08T06:24:22;12.15;;;6.55;;
59474;SDS011;45288;51.136;16.928;2023-03-08T06:26:48;17.05;;;7.43;;
59474;SDS011;45288;51.136;16.928;2023-03-08T06:29:15;12.90;;;6.35;;
59474;SDS011;45288;51.136;16.928;2023-03-08T06:31:40;15.10;;;7.53;;
59474;SDS011;45288;51.136;16.928;2023-03-08T06:34:06;12.18;;;6.70;;
59474;SDS011;45288;51.136;16.928;2023-03-08T06:36:32;14.07;;;6.75;;
59474;SDS011;45288;51.136;16.928;2023-03-08T06:38:59;13.18;;;6.32;;
59474;SDS011;45288;51.136;16.928;2023-03-08T06:41:25;14.90;;;6.87;;
59474;SDS011;45288;51.136;16.928;2023-03-08T06:43:54;14.88;;;7.05;;
59474;SDS011;45288;51.136;16.928;2023-03-08T06:46:21;14.30;;;6.97;;
59474;SDS011;45288;51.136;16.928;2023-03-08T06:48:47;15.98;;;7.30;;
59474;SDS011;45288;51.136;16.928;2023-03-08T06:51:13;17.07;;;7.47;;
59474;SDS011;45288;51.136;16.928;2023-03-08T06:53:42;14.93;;;6.93;;
59474;SDS011;45288;51.136;16.928;2023-03-08T06:56:10;13.05;;;6.03;;
59474;SDS011;45288;51.136;16.928;2023-03-08T06:58:36;15.10;;;6.73;;
59474;SDS011;45288;51.136;16.928;2023-03-08T07:01:02;13.40;;;6.43;;
59474;SDS011;45288;51.136;16.928;2023-03-08T07:03:30;11.20;;;6.07;;
59474;SDS011;45288;51.136;16.928;2023-03-08T07:05:59;14.60;;;6.70;;
59474;SDS011;45288;51.136;16.928;2023-03-08T07:08:25;13.07;;;6.60;;
59474;SDS011;45288;51.136;16.928;2023-03-08T07:10:51;15.27;;;7.33;;
59474;SDS011;45288;51.136;16.928;2023-03-08T07:13:16;14.38;;;6.90;;
59474;SDS011;45288;51.136;16.928;2023-03-08T07:15:42;15.00;;;6.68;;
59474;SDS011;45288;51.136;16.928;2023-03-08T07:18:08;13.60;;;7.23;;
59474;SDS011;45288;51.136;16.928;2023-03-08T07:20:33;14.90;;;7.38;;
59474;SDS011;45288;51.136;16.928;2023-03-08T07:22:59;16.85;;;9.23;;
59474;SDS011;45288;51.136;16.928;2023-03-08T07:25:28;19.02;;;9.32;;
59474;SDS011;45288;51.136;16.928;2023-03-08T07:27:54;19.38;;;10.02;;
59474;SDS011;45288;51.136;16.928;2023-03-08T07:30:22;19.50;;;10.85;;
59474;SDS011;45288;51.136;16.928;2023-03-08T07:32:48;22.88;;;10.98;;
59474;SDS011;45288;51.136;16.928;2023-03-08T07:35:14;16.57;;;9.67;;
59474;SDS011;45288;51.136;16.928;2023-03-08T07:37:40;19.30;;;10.32;;
59474;SDS011;45288;51.136;16.928;2023-03-08T07:40:06;16.13;;;9.33;;
59474;SDS011;45288;51.136;16.928;2023-03-08T07:42:32;17.02;;;9.00;;
59474;SDS011;45288;51.136;16.928;2023-03-08T07:45:08;14.73;;;8.47;;
59474;SDS011;45288;51.136;16.928;2023-03-08T07:47:35;16.23;;;8.93;;
59474;SDS011;45288;51.136;16.928;2023-03-08T07:50:00;20.98;;;10.02;;
59474;SDS011;45288;51.136;16.928;2023-03-08T07:52:28;18.70;;;9.40;;
59474;SDS011;45288;51.136;16.928;2023-03-08T07:54:54;17.60;;;8.75;;
59474;SDS011;45288;51.136;16.928;2023-03-08T07:57:19;16.23;;;7.47;;
59474;SDS011;45288;51.136;16.928;2023-03-08T07:59:45;15.10;;;6.90;;
59474;SDS011;45288;51.136;16.928;2023-03-08T08:02:11;14.27;;;6.53;;
59474;SDS011;45288;51.136;16.928;2023-03-08T08:04:37;15.70;;;7.50;;
59474;SDS011;45288;51.136;16.928;2023-03-08T08:07:03;16.60;;;7.80;;
59474;SDS011;45288;51.136;16.928;2023-03-08T08:09:29;16.17;;;8.05;;
59474;SDS011;45288;51.136;16.928;2023-03-08T08:11:54;17.93;;;8.53;;
59474;SDS011;45288;51.136;16.928;2023-03-08T08:14:20;16.65;;;8.07;;
59474;SDS011;45288;51.136;16.928;2023-03-08T08:16:45;16.33;;;8.07;;
59474;SDS011;45288;51.136;16.928;2023-03-08T08:19:11;16.38;;;7.53;;
59474;SDS011;45288;51.136;16.928;2023-03-08T08:21:39;14.23;;;7.43;;
59474;SDS011;45288;51.136;16.928;2023-03-08T08:24:04;15.27;;;7.13;;
59474;SDS011;45288;51.136;16.928;2023-03-08T08:26:30;13.63;;;6.53;;
59474;SDS011;45288;51.136;16.928;2023-03-08T08:28:56;14.23;;;7.00;;
59474;SDS011;45288;51.136;16.928;2023-03-08T08:31:22;12.68;;;6.80;;
59474;SDS011;45288;51.136;16.928;2023-03-08T08:33:48;14.45;;;7.00;;
59474;SDS011;45288;51.136;16.928;2023-03-08T08:36:15;15.47;;;7.03;;
59474;SDS011;45288;51.136;16.928;2023-03-08T08:38:41;18.77;;;7.72;;
59474;SDS011;45288;51.136;16.928;2023-03-08T08:41:07;16.40;;;7.30;;
59474;SDS011;45288;51.136;16.928;2023-03-08T08:43:34;14.10;;;7.03;;
59474;SDS011;45288;51.136;16.928;2023-03-08T08:46:00;18.60;;;8.73;;
59474;SDS011;45288;51.136;16.928;2023-03-08T08:48:26;16.23;;;8.00;;
59474;SDS011;45288;51.136;16.928;2023-03-08T08:50:52;15.30;;;7.82;;
59474;SDS011;45288;51.136;16.928;2023-03-08T08:53:18;15.77;;;7.70;;
59474;SDS011;45288;51.136;16.928;2023-03-08T08:55:44;16.30;;;7.80;;
59474;SDS011;45288;51.136;16.928;2023-03-08T08:58:10;15.15;;;7.47;;
59474;SDS011;45288;51.136;16.928;2023-03-08T09:00:36;17.52;;;7.80;;
59474;SDS011;45288;51.136;16.928;2023-03-08T09:03:02;14.87;;;7.80;;
59474;SDS011;45288;51.136;16.928;2023-03-08T09:05:28;15.27;;;7.07;;
59474;SDS011;45288;51.136;16.928;2023-03-08T09:07:55;17.33;;;7.50;;
59474;SDS011;45288;51.136;16.928;2023-03-08T09:10:23;18.15;;;7.63;;
59474;SDS011;45288;51.136;16.928;2023-03-08T09:12:49;14.73;;;7.07;;
59474;SDS011;45288;51.136;16.928;2023-03-08T09:15:15;16.73;;;7.53;;
59474;SDS011;45288;51.136;16.928;2023-03-08T09:17:41;16.50;;;7.88;;
59474;SDS011;45288;51.136;16.928;2023-03-08T09:20:06;13.73;;;7.17;;
59474;SDS011;45288;51.136;16.928;2023-03-08T09:22:39;17.15;;;7.47;;
59474;SDS011;45288;51.136;16.928;2023-03-08T09:25:05;17.08;;;7.75;;
59474;SDS011;45288;51.136;16.928;2023-03-08T09:27:31;19.30;;;8.13;;
59474;SDS011;45288;51.136;16.928;2023-03-08T09:29:56;16.23;;;7.82;;
59474;SDS011;45288;51.136;16.928;2023-03-08T09:32:23;15.02;;;7.32;;
59474;SDS011;45288;51.136;16.928;2023-03-08T09:34:49;15.93;;;7.65;;
59474;SDS011;45288;51.136;16.928;2023-03-08T09:37:15;14.45;;;7.40;;
59474;SDS011;45288;51.136;16.928;2023-03-08T09:39:42;14.07;;;6.80;;
59474;SDS011;45288;51.136;16.928;2023-03-08T09:42:30;13.05;;;6.00;;
59474;SDS011;45288;51.136;16.928;2023-03-08T09:44:56;14.23;;;6.88;;
59474;SDS011;45288;51.136;16.928;2023-03-08T09:47:41;11.68;;;6.40;;
59474;SDS011;45288;51.136;16.928;2023-03-08T09:52:39;11.45;;;5.90;;
59474;SDS011;45288;51.136;16.928;2023-03-08T09:55:08;14.77;;;6.80;;
59474;SDS011;45288;51.136;16.928;2023-03-08T09:57:39;15.27;;;6.43;;
59474;SDS011;45288;51.136;16.928;2023-03-08T10:00:06;12.55;;;6.60;;
59474;SDS011;45288;51.136;16.928;2023-03-08T10:02:42;15.10;;;7.15;;
59474;SDS011;45288;51.136;16.928;2023-03-08T10:05:14;13.98;;;6.72;;
59474;SDS011;45288;51.136;16.928;2023-03-08T10:07:44;15.50;;;7.30;;
59474;SDS011;45288;51.136;16.928;2023-03-08T10:10:21;13.90;;;6.70;;
59474;SDS011;45288;51.136;16.928;2023-03-08T10:15:20;14.23;;;6.87;;
59474;SDS011;45288;51.136;16.928;2023-03-08T10:20:27;13.30;;;6.68;;
59474;SDS011;45288;51.136;16.928;2023-03-08T10:23:01;16.08;;;7.68;;
59474;SDS011;45288;51.136;16.928;2023-03-08T10:25:28;14.38;;;7.28;;
59474;SDS011;45288;51.136;16.928;2023-03-08T10:27:56;14.67;;;7.03;;
59474;SDS011;45288;51.136;16.928;2023-03-08T10:33:08;18.73;;;8.27;;
59474;SDS011;45288;51.136;16.928;2023-03-08T10:35:51;20.77;;;8.53;;
59474;SDS011;45288;51.136;16.928;2023-03-08T10:38:17;18.23;;;8.35;;
59474;SDS011;45288;51.136;16.928;2023-03-08T10:40:43;26.95;;;10.02;;
59474;SDS011;45288;51.136;16.928;2023-03-08T10:43:15;19.50;;;9.37;;
59474;SDS011;45288;51.136;16.928;2023-03-08T10:45:42;19.50;;;9.48;;
59474;SDS011;45288;51.136;16.928;2023-03-08T15:38:37;36.15;;;17.15;;
59474;SDS011;45288;51.136;16.928;2023-03-08T15:41:03;35.63;;;17.08;;
59474;SDS011;45288;51.136;16.928;2023-03-08T15:43:28;34.50;;;17.07;;
59474;SDS011;45288;51.136;16.928;2023-03-08T15:45:56;30.35;;;16.00;;
59474;SDS011;45288;51.136;16.928;2023-03-08T15:48:21;30.60;;;16.17;;
59474;SDS011;45288;51.136;16.928;2023-03-08T15:50:47;33.05;;;17.17;;
59474;SDS011;45288;51.136;16.928;2023-03-08T15:53:14;31.63;;;16.05;;
59474;SDS011;45288;51.136;16.928;2023-03-08T15:55:39;29.65;;;15.13;;
59474;SDS011;45288;51.136;16.928;2023-03-08T15:58:05;31.47;;;16.27;;
59474;SDS011;45288;51.136;16.928;2023-03-08T16:00:31;34.40;;;16.58;;
59474;SDS011;45288;51.136;16.928;2023-03-08T16:02:57;35.55;;;17.23;;
59474;SDS011;45288;51.136;16.928;2023-03-08T16:05:23;35.42;;;17.75;;
59474;SDS011;45288;51.136;16.928;2023-03-08T16:07:53;35.13;;;17.83;;
59474;SDS011;45288;51.136;16.928;2023-03-08T16:10:19;34.65;;;17.50;;
59474;SDS011;45288;51.136;16.928;2023-03-08T16:12:45;31.77;;;17.10;;
59474;SDS011;45288;51.136;16.928;2023-03-08T16:15:11;34.63;;;18.20;;
59474;SDS011;45288;51.136;16.928;2023-03-08T16:17:36;33.13;;;17.50;;
59474;SDS011;45288;51.136;16.928;2023-03-08T16:20:02;34.53;;;18.00;;
59474;SDS011;45288;51.136;16.928;2023-03-08T16:22:31;34.13;;;17.13;;
59474;SDS011;45288;51.136;16.928;2023-03-08T16:24:57;37.90;;;18.27;;
59474;SDS011;45288;51.136;16.928;2023-03-08T16:27:22;33.67;;;17.47;;
59474;SDS011;45288;51.136;16.928;2023-03-08T16:29:51;31.67;;;17.35;;
59474;SDS011;45288;51.136;16.928;2023-03-08T16:32:17;34.75;;;18.88;;
59474;SDS011;45288;51.136;16.928;2023-03-08T16:34:43;34.55;;;18.85;;
59474;SDS011;45288;51.136;16.928;2023-03-08T16:37:11;39.38;;;19.48;;
59474;SDS011;45288;51.136;16.928;2023-03-08T16:39:37;38.53;;;20.15;;
59474;SDS011;45288;51.136;16.928;2023-03-08T16:42:03;39.53;;;20.60;;
59474;SDS011;45288;51.136;16.928;2023-03-08T16:44:29;42.10;;;22.77;;
59474;SDS011;45288;51.136;16.928;2023-03-08T16:46:54;42.58;;;21.85;;
59474;SDS011;45288;51.136;16.928;2023-03-08T16:49:20;41.53;;;21.77;;
59474;SDS011;45288;51.136;16.928;2023-03-08T16:51:47;38.95;;;20.52;;
59474;SDS011;45288;51.136;16.928;2023-03-08T16:54:14;40.63;;;20.38;;
59474;SDS011;45288;51.136;16.928;2023-03-08T16:56:41;39.40;;;18.83;;
59474;SDS011;45288;51.136;16.928;2023-03-08T16:59:08;33.35;;;17.38;;
59474;SDS011;45288;51.136;16.928;2023-03-08T17:01:34;37.73;;;18.87;;
59474;SDS011;45288;51.136;16.928;2023-03-08T17:04:00;39.13;;;18.80;;
59474;SDS011;45288;51.136;16.928;2023-03-08T17:06:27;36.03;;;17.90;;
59474;SDS011;45288;51.136;16.928;2023-03-08T17:08:53;41.53;;;19.52;;
59474;SDS011;45288;51.136;16.928;2023-03-08T17:11:20;37.00;;;18.58;;
59474;SDS011;45288;51.136;16.928;2023-03-08T17:13:47;36.20;;;18.80;;
59474;SDS011;45288;51.136;16.928;2023-03-08T17:16:19;37.35;;;18.55;;
59474;SDS011;45288;51.136;16.928;2023-03-08T17:18:46;37.13;;;18.80;;
59474;SDS011;45288;51.136;16.928;2023-03-08T17:21:15;37.53;;;18.13;;
59474;SDS011;45288;51.136;16.928;2023-03-08T17:23:41;32.67;;;17.33;;
59474;SDS011;45288;51.136;16.928;2023-03-08T17:26:08;36.53;;;18.27;;
59474;SDS011;45288;51.136;16.928;2023-03-08T17:28:34;35.90;;;17.08;;
59474;SDS011;45288;51.136;16.928;2023-03-08T17:31:05;33.58;;;17.42;;
59474;SDS011;45288;51.136;16.928;2023-03-08T17:33:31;34.97;;;17.35;;
59474;SDS011;45288;51.136;16.928;2023-03-08T17:35:56;34.83;;;17.83;;
59474;SDS011;45288;51.136;16.928;2023-03-08T17:38:26;33.40;;;17.70;;
59474;SDS011;45288;51.136;16.928;2023-03-08T17:40:52;34.22;;;18.25;;
59474;SDS011;45288;51.136;16.928;2023-03-08T17:43:18;34.90;;;17.70;;
59474;SDS011;45288;51.136;16.928;2023-03-08T17:45:44;33.85;;;17.80;;
59474;SDS011;45288;51.136;16.928;2023-03-08T17:48:10;36.10;;;18.02;;
59474;SDS011;45288;51.136;16.928;2023-03-08T17:50:36;36.53;;;18.70;;
59474;SDS011;45288;51.136;16.928;2023-03-08T17:53:01;40.28;;;19.10;;
59474;SDS011;45288;51.136;16.928;2023-03-08T17:55:27;35.53;;;19.50;;
59474;SDS011;45288;51.136;16.928;2023-03-08T17:57:53;36.97;;;19.17;;
59474;SDS011;45288;51.136;16.928;2023-03-08T18:00:18;38.77;;;19.93;;
59474;SDS011;45288;51.136;16.928;2023-03-08T18:02:44;34.55;;;19.13;;
59474;SDS011;45288;51.136;16.928;2023-03-08T18:05:10;41.35;;;20.58;;
59474;SDS011;45288;51.136;16.928;2023-03-08T18:07:36;40.53;;;21.05;;
59474;SDS011;45288;51.136;16.928;2023-03-08T18:10:02;41.22;;;20.83;;
59474;SDS011;45288;51.136;16.928;2023-03-08T18:12:28;40.53;;;20.85;;
59474;SDS011;45288;51.136;16.928;2023-03-08T18:14:54;38.00;;;20.33;;
59474;SDS011;45288;51.136;16.928;2023-03-08T18:17:19;37.60;;;21.07;;
59474;SDS011;45288;51.136;16.928;2023-03-08T18:19:45;39.33;;;19.77;;
59474;SDS011;45288;51.136;16.928;2023-03-08T18:22:11;42.30;;;21.20;;
59474;SDS011;45288;51.136;16.928;2023-03-08T18:24:37;41.50;;;21.20;;
59474;SDS011;45288;51.136;16.928;2023-03-08T18:27:03;36.13;;;20.45;;
59474;SDS011;45288;51.136;16.928;2023-03-08T18:29:32;36.38;;;20.00;;
59474;SDS011;45288;51.136;16.928;2023-03-08T18:31:58;36.90;;;20.57;;
59474;SDS011;45288;51.136;16.928;2023-03-08T18:34:24;39.57;;;21.10;;
59474;SDS011;45288;51.136;16.928;2023-03-08T18:36:49;38.40;;;21.83;;
59474;SDS011;45288;51.136;16.928;2023-03-08T18:39:15;38.60;;;22.03;;
59474;SDS011;45288;51.136;16.928;2023-03-08T18:41:41;42.10;;;22.48;;
59474;SDS011;45288;51.136;16.928;2023-03-08T18:44:07;45.60;;;23.60;;
59474;SDS011;45288;51.136;16.928;2023-03-08T18:46:32;41.65;;;22.33;;
59474;SDS011;45288;51.136;16.928;2023-03-08T18:51:25;43.25;;;23.58;;
59474;SDS011;45288;51.136;16.928;2023-03-08T18:53:52;46.28;;;23.55;;
59474;SDS011;45288;51.136;16.928;2023-03-08T18:56:17;48.45;;;25.75;;
59474;SDS011;45288;51.136;16.928;2023-03-08T18:58:43;46.00;;;24.53;;
59474;SDS011;45288;51.136;16.928;2023-03-08T19:01:10;45.95;;;23.95;;
59474;SDS011;45288;51.136;16.928;2023-03-08T19:03:39;43.20;;;24.08;;
59474;SDS011;45288;51.136;16.928;2023-03-08T19:06:05;49.13;;;25.38;;
59474;SDS011;45288;51.136;16.928;2023-03-08T19:08:31;42.70;;;23.73;;
59474;SDS011;45288;51.136;16.928;2023-03-08T19:10:57;45.83;;;24.43;;
59474;SDS011;45288;51.136;16.928;2023-03-08T19:13:23;42.73;;;23.53;;
59474;SDS011;45288;51.136;16.928;2023-03-08T19:15:48;44.33;;;24.10;;
59474;SDS011;45288;51.136;16.928;2023-03-08T19:18:14;50.45;;;25.15;;
59474;SDS011;45288;51.136;16.928;2023-03-08T19:20:40;42.67;;;24.33;;
59474;SDS011;45288;51.136;16.928;2023-03-08T19:23:06;50.40;;;25.17;;